createdAt,value
2023-03-27T12:23:11.313Z,3.50
2023-03-27T12:26:07.862Z,3.10
2023-03-27T12:29:25.290Z,3.00
2023-03-27T12:32:25.865Z,2.90
2023-03-27T12:35:14.408Z,3.30
2023-03-27T12:38:02.212Z,3.60
2023-03-27T12:40:47.307Z,4.20
2023-03-27T12:43:30.043Z,4.50
2023-03-27T12:46:31.337Z,5.40
2023-03-27T12:49:29.344Z,6.50
2023-03-27T12:52:09.260Z,7.20
2023-03-27T12:54:39.278Z,7.40
2023-03-27T12:57:25.393Z,7.00
2023-03-27T13:00:06.324Z,6.40
2023-03-27T13:02:43.776Z,7.10
2023-03-27T13:05:43.663Z,7.20
2023-03-27T13:08:43.579Z,7.10
2023-03-27T13:11:56.257Z,7.00
2023-03-27T13:15:15.305Z,6.30
2023-03-27T13:18:10.327Z,5.70
2023-03-27T13:21:14.290Z,4.90
2023-03-27T13:24:18.332Z,4.40
2023-03-27T13:27:29.277Z,3.90
2023-03-27T13:29:57.025Z,3.60
2023-03-27T13:32:44.404Z,3.30
2023-03-27T13:35:21.337Z,2.90
2023-03-27T13:37:59.316Z,2.70
2023-03-27T13:40:35.388Z,2.80
2023-03-27T13:43:33.308Z,2.80
2023-03-27T13:46:12.334Z,2.80
2023-03-27T13:49:21.324Z,2.70
2023-03-27T13:52:07.577Z,2.80
2023-03-27T13:55:18.337Z,2.80
2023-03-27T13:57:55.711Z,3.10
2023-03-27T14:01:25.373Z,3.20
2023-03-27T14:04:41.323Z,3.50
2023-03-27T14:07:54.345Z,3.70
2023-03-27T14:11:04.353Z,3.10
2023-03-27T14:14:03.389Z,3.10
2023-03-27T14:16:58.332Z,3.20
2023-03-27T14:20:18.296Z,3.70
2023-03-27T14:23:13.341Z,4.30
2023-03-27T14:26:00.319Z,4.20
2023-03-27T14:28:49.605Z,3.50
2023-03-27T14:31:25.372Z,3.50
2023-03-27T14:34:09.988Z,3.40
2023-03-27T14:36:49.312Z,3.20
2023-03-27T14:39:34.277Z,3.30
2023-03-27T14:42:10.333Z,3.10
2023-03-27T14:44:38.023Z,3.40
2023-03-27T14:47:19.419Z,4.00
2023-03-27T14:49:50.934Z,4.60
2023-03-27T14:52:42.313Z,5.30
2023-03-27T14:55:15.004Z,5.40
2023-03-27T14:57:51.334Z,4.90
2023-03-27T15:00:23.659Z,4.80
2023-03-27T15:03:01.535Z,4.60
2023-03-27T15:05:34.992Z,4.20
2023-03-27T15:08:10.354Z,4.20
2023-03-27T15:10:37.544Z,4.60
2023-03-27T15:13:11.417Z,4.80
2023-03-27T15:15:47.185Z,4.40
2023-03-27T15:18:46.331Z,4.40
2023-03-27T15:21:41.329Z,4.20
2023-03-27T15:24:39.321Z,3.90
2023-03-27T15:27:19.712Z,3.60
2023-03-27T15:30:09.327Z,3.50
2023-03-27T15:32:57.413Z,3.70
2023-03-27T15:35:41.386Z,4.00
2023-03-27T15:38:14.421Z,4.40
2023-03-27T15:40:50.329Z,4.80
2023-03-27T15:43:31.312Z,5.10
2023-03-27T15:46:15.273Z,5.00
2023-03-27T15:48:54.330Z,5.10
2023-03-27T15:51:21.302Z,5.30
2023-03-27T15:54:00.363Z,5.90
2023-03-27T15:56:50.369Z,6.10
2023-03-27T15:59:17.859Z,5.60
2023-03-27T16:02:24.766Z,5.50
2023-03-27T16:05:04.546Z,5.70
2023-03-27T16:07:50.373Z,6.10
2023-03-27T16:10:38.319Z,6.20
2023-03-27T16:13:14.322Z,5.80
2023-03-27T16:15:48.301Z,5.30
2023-03-27T16:18:25.253Z,4.70
2023-03-27T16:20:59.385Z,4.00
2023-03-27T16:23:26.468Z,3.60
2023-03-27T16:26:00.353Z,3.30
2023-03-27T16:28:29.896Z,2.90
2023-03-27T16:31:04.648Z,2.70
2023-03-27T16:33:38.406Z,2.50
2023-03-27T16:36:12.321Z,2.40
2023-03-27T16:38:46.921Z,2.60
2023-03-27T16:41:23.398Z,2.70
2023-03-27T16:43:52.890Z,2.80
2023-03-27T16:46:37.320Z,2.70
2023-03-27T16:49:11.312Z,2.70
2023-03-27T16:51:45.352Z,2.60
2023-03-27T16:54:12.629Z,2.50
2023-03-27T16:56:46.358Z,2.50
2023-03-27T17:01:47.341Z,2.60
2023-03-27T22:47:06.395Z,-1.30
2023-03-27T22:49:40.426Z,-1.40
2023-03-27T22:52:14.411Z,-1.40
2023-03-27T22:54:42.189Z,-1.50
2023-03-27T22:57:16.447Z,-1.50
2023-03-27T22:59:43.579Z,-1.50
2023-03-27T23:02:17.407Z,-1.50
2023-03-27T23:04:51.483Z,-1.50
2023-03-27T23:07:31.377Z,-1.50
2023-03-27T23:10:05.405Z,-1.30
2023-03-27T23:12:32.469Z,-1.30
2023-03-27T23:15:06.447Z,-1.30
2023-03-27T23:17:33.555Z,-1.20
2023-03-27T23:20:07.454Z,-1.30
2023-03-27T23:22:41.367Z,-1.30
2023-03-27T23:25:15.399Z,-1.30
2023-03-27T23:27:42.451Z,-1.30
2023-03-27T23:30:18.366Z,-1.30
2023-03-27T23:32:45.582Z,-1.40
2023-03-27T23:35:19.362Z,-1.40
2023-03-27T23:37:47.805Z,-1.40
2023-03-27T23:40:21.419Z,-1.30
2023-03-27T23:42:48.546Z,-1.30
2023-03-27T23:45:22.560Z,-1.20
2023-03-27T23:47:49.695Z,-1.20
2023-03-27T23:50:16.859Z,-1.20
2023-03-27T23:52:50.420Z,-1.20
2023-03-27T23:55:24.418Z,-1.20
2023-03-27T23:57:58.362Z,-1.30
